Time;durP1;ratioP1;P1;durP2;ratioP2;P2;SDS_P1;SDS_P2;PMS_P1;PMS_P2;Temp;Humidity;BMP_temperature;BMP_pressure;BME280_temperature;BME280_humidity;BME280_pressure;Samples;Min_cycle;Max_cycle;Signal;HPM_P1;HPM_P2
2023/08/19 00:01:23;;;;;;;;;;;;;;;20.96;42.53;95513.88;4986555;28;19998;-71
2023/08/19 00:03:48;;;;;;;;;;;;;;;20.96;42.23;95511.16;4987115;28;20032;-70
2023/08/19 00:06:33;;;;;;;;;;;;;;;20.96;42.42;95511.16;4983203;28;20456;-70
2023/08/19 00:08:59;;;;;;;;;;;;;;;20.94;42.77;95507.91;4984247;28;19969;-70
2023/08/19 00:11:24;;;;;;;;;;;;;;;20.96;42.29;95505.75;4983671;28;19926;-69
2023/08/19 00:13:50;;;;;;;;;;;;;;;20.99;41.81;95500.69;4982173;28;19926;-70
2023/08/19 00:16:15;;;;;;;;;;;;;;;21.00;41.88;95501.50;4983934;28;19925;-70
2023/08/19 00:18:40;;;;;;;;;;;;;;;21.00;42.03;95499.63;4983056;28;20458;-70
2023/08/19 00:21:05;;;;;;;;;;;;;;;20.98;42.22;95503.63;4989308;28;20390;-69
2023/08/19 00:23:31;;;;;;;;;;;;;;;20.92;42.18;95504.63;4987799;28;19967;-70
2023/08/19 00:25:56;;;;;;;;;;;;;;;20.94;42.33;95503.28;4991626;28;19966;-70
2023/08/19 00:28:22;;;;;;;;;;;;;;;20.96;41.71;95506.59;4996175;28;20012;-70
2023/08/19 00:30:47;;;;;;;;;;;;;;;20.92;42.00;95496.50;4991176;28;19956;-70
2023/08/19 00:33:12;;;;;;;;;;;;;;;20.86;42.45;95496.44;4990735;28;19961;-71
2023/08/19 00:35:39;;;;;;;;;;;;;;;20.83;42.13;95494.22;4996747;28;19961;-70
2023/08/19 00:38:04;;;;;;;;;;;;;;;20.74;42.86;95498.41;4993416;28;19921;-70
2023/08/19 00:40:29;;;;;;;;;;;;;;;20.65;43.01;95500.72;4997358;28;20457;-70
2023/08/19 00:42:54;;;;;;;;;;;;;;;20.67;42.39;95497.75;4998168;28;19929;-70
2023/08/19 00:45:20;;;;;;;;;;;;;;;20.61;43.10;95494.13;4997377;28;20141;-70
2023/08/19 00:47:45;;;;;;;;;;;;;;;20.63;42.96;95496.63;4996079;28;19935;-70
2023/08/19 00:50:11;;;;;;;;;;;;;;;20.66;42.35;95502.34;4984168;28;20426;-69
2023/08/19 00:52:36;;;;;;;;;;;;;;;20.64;42.70;95496.38;4984240;28;19917;-70
2023/08/19 00:55:02;;;;;;;;;;;;;;;20.59;42.91;95494.38;4981292;28;20024;-70
2023/08/19 00:57:27;;;;;;;;;;;;;;;20.55;42.77;95504.03;4976102;28;19917;-69
2023/08/19 00:59:53;;;;;;;;;;;;;;;20.50;42.90;95493.16;4982342;28;20390;-70
2023/08/19 01:02:18;;;;;;;;;;;;;;;20.48;42.94;95489.84;4995970;28;20402;-70
2023/08/19 01:04:43;;;;;;;;;;;;;;;20.41;43.29;95490.03;4996316;28;19988;-69
2023/08/19 01:07:10;;;;;;;;;;;;;;;20.35;43.66;95489.09;4994129;28;20333;-70
2023/08/19 01:09:43;;;;;;;;;;;;;;;20.36;42.80;95485.34;4996566;28;20615;-70
2023/08/19 01:12:19;;;;;;;;;;;;;;;20.30;43.57;95483.63;4976607;28;19926;-69
2023/08/19 01:15:04;;;;;;;;;;;;;;;20.25;43.31;95480.00;4980562;28;20062;-70
2023/08/19 01:17:29;;;;;;;;;;;;;;;20.21;43.95;95482.38;4991036;28;19945;-70
2023/08/19 01:19:54;;;;;;;;;;;;;;;20.21;43.54;95476.97;4994734;28;19926;-70
2023/08/19 01:22:21;;;;;;;;;;;;;;;20.25;43.18;95480.00;4995722;28;20291;-69
2023/08/19 01:24:47;;;;;;;;;;;;;;;20.24;43.19;95479.19;4995959;28;19921;-70
2023/08/19 01:27:22;;;;;;;;;;;;;;;20.21;43.30;95472.38;4983971;28;20437;-69
2023/08/19 01:29:47;;;;;;;;;;;;;;;20.13;43.52;95472.78;4974663;28;19925;-70
2023/08/19 01:32:13;;;;;;;;;;;;;;;20.16;43.28;95474.19;4960274;28;19996;-70
2023/08/19 01:34:38;;;;;;;;;;;;;;;20.03;43.57;95476.13;4979423;28;19922;-70
2023/08/19 01:37:04;;;;;;;;;;;;;;;20.02;43.66;95470.97;4995582;28;19982;-70
2023/08/19 01:39:29;;;;;;;;;;;;;;;20.01;43.98;95475.53;4994926;28;20564;-70
2023/08/19 01:41:55;;;;;;;;;;;;;;;19.97;43.88;95474.38;4995164;28;19925;-70
2023/08/19 01:44:20;;;;;;;;;;;;;;;19.96;44.27;95470.84;4994454;28;20206;-70
2023/08/19 01:46:45;;;;;;;;;;;;;;;19.99;43.88;95466.03;4996106;28;19979;-70
2023/08/19 01:49:11;;;;;;;;;;;;;;;20.00;43.51;95470.38;4997367;28;20350;-70
2023/08/19 01:51:36;;;;;;;;;;;;;;;19.98;43.82;95473.31;4992850;28;20387;-70
2023/08/19 01:54:02;;;;;;;;;;;;;;;20.01;43.81;95470.13;4995461;28;20023;-70
2023/08/19 01:56:27;;;;;;;;;;;;;;;20.01;43.62;95469.31;4997233;28;19925;-70
2023/08/19 01:58:54;;;;;;;;;;;;;;;20.03;43.60;95472.59;4999898;28;19925;-71
2023/08/19 02:01:19;;;;;;;;;;;;;;;20.05;43.51;95474.00;4981370;28;19922;-70
2023/08/19 02:03:44;;;;;;;;;;;;;;;20.03;43.55;95473.44;4979826;28;20545;-71
2023/08/19 02:06:09;;;;;;;;;;;;;;;20.05;43.07;95476.69;4974121;28;20309;-70
2023/08/19 02:08:35;;;;;;;;;;;;;;;20.03;43.38;95478.84;4977738;28;19976;-70
2023/08/19 02:11:00;;;;;;;;;;;;;;;20.04;43.46;95466.94;4973723;28;19980;-70
2023/08/19 02:13:25;;;;;;;;;;;;;;;20.06;43.41;95462.09;4976994;28;19992;-70
2023/08/19 02:15:50;;;;;;;;;;;;;;;20.09;43.38;95464.34;4988098;28;20431;-70
2023/08/19 02:18:17;;;;;;;;;;;;;;;20.09;43.21;95467.03;4992482;28;19925;-70
2023/08/19 02:20:45;;;;;;;;;;;;;;;20.13;43.60;95466.56;4990478;28;19921;-70
2023/08/19 02:23:10;;;;;;;;;;;;;;;20.12;43.75;95470.31;4995630;28;19979;-70
2023/08/19 02:25:36;;;;;;;;;;;;;;;20.16;43.96;95466.88;4991545;28;20306;-70
2023/08/19 02:28:01;;;;;;;;;;;;;;;20.15;43.82;95470.66;4995989;28;20012;-70
2023/08/19 02:30:26;;;;;;;;;;;;;;;20.21;43.69;95468.84;4993914;28;20019;-70
2023/08/19 02:32:51;;;;;;;;;;;;;;;20.28;43.63;95474.09;4996514;28;20003;-70
2023/08/19 02:35:17;;;;;;;;;;;;;;;20.35;43.71;95475.59;4994687;28;19964;-70
2023/08/19 02:37:43;;;;;;;;;;;;;;;20.43;43.48;95471.66;4996168;28;19957;-70
2023/08/19 02:40:08;;;;;;;;;;;;;;;20.54;42.69;95477.25;4994879;28;19932;-71
2023/08/19 02:42:33;;;;;;;;;;;;;;;20.68;42.71;95480.47;4994104;28;20063;-72
2023/08/19 02:44:59;;;;;;;;;;;;;;;20.74;42.04;95474.88;4994423;28;20176;-72
2023/08/19 02:47:24;;;;;;;;;;;;;;;20.83;42.47;95475.28;4993788;28;19929;-72
2023/08/19 02:49:49;;;;;;;;;;;;;;;20.90;42.18;95477.00;4994920;28;19979;-73
2023/08/19 02:52:15;;;;;;;;;;;;;;;20.90;42.52;95477.00;4988483;28;19961;-72
2023/08/19 02:54:40;;;;;;;;;;;;;;;20.88;42.14;95474.56;4994803;28;20261;-73
2023/08/19 02:57:05;;;;;;;;;;;;;;;20.90;42.63;95477.00;4989703;28;19921;-73
2023/08/19 02:59:30;;;;;;;;;;;;;;;20.85;42.50;95475.88;4995765;28;20158;-73
2023/08/19 03:01:56;;;;;;;;;;;;;;;20.76;42.86;95474.63;4991498;28;20041;-72
2023/08/19 03:04:21;;;;;;;;;;;;;;;20.73;42.42;95470.53;4974688;28;19930;-72
2023/08/19 03:06:46;;;;;;;;;;;;;;;20.74;43.37;95474.88;4988118;28;20441;-72
2023/08/19 03:09:11;;;;;;;;;;;;;;;20.70;42.95;95479.13;4979703;28;20296;-73
2023/08/19 03:11:37;;;;;;;;;;;;;;;20.67;43.19;95468.00;4989349;28;19968;-73
2023/08/19 03:14:02;;;;;;;;;;;;;;;20.70;42.66;95471.03;4996852;28;20020;-72
2023/08/19 03:16:27;;;;;;;;;;;;;;;20.69;42.96;95464.00;5001222;28;19929;-73
2023/08/19 03:18:52;;;;;;;;;;;;;;;20.72;42.87;95470.78;4985148;28;20499;-72
2023/08/19 03:21:18;;;;;;;;;;;;;;;20.75;43.48;95462.19;4976068;28;19932;-72
2023/08/19 03:23:43;;;;;;;;;;;;;;;20.76;42.42;95463.81;4988135;28;20020;-72
2023/08/19 03:26:08;;;;;;;;;;;;;;;20.78;42.23;95460.88;4993453;28;19957;-73
2023/08/19 03:28:33;;;;;;;;;;;;;;;20.78;42.42;95455.44;4996348;28;19977;-72
2023/08/19 03:30:59;;;;;;;;;;;;;;;20.79;42.56;95457.91;4994204;28;20028;-72
2023/08/19 03:33:24;;;;;;;;;;;;;;;20.74;43.12;95447.81;4995143;28;19926;-73
2023/08/19 03:35:49;;;;;;;;;;;;;;;20.77;42.47;95443.00;4996391;28;19975;-73
2023/08/19 03:38:14;;;;;;;;;;;;;;;20.71;42.26;95461.03;4992979;28;20064;-73
2023/08/19 03:40:40;;;;;;;;;;;;;;;20.69;42.82;95453.16;4996131;28;19928;-72
2023/08/19 03:43:07;;;;;;;;;;;;;;;20.76;42.56;95452.19;4997558;28;19932;-72
2023/08/19 03:45:33;;;;;;;;;;;;;;;20.75;42.67;95456.78;4978050;28;20112;-73
2023/08/19 03:47:58;;;;;;;;;;;;;;;20.73;42.86;95454.31;4996476;28;19925;-72
2023/08/19 03:50:23;;;;;;;;;;;;;;;20.70;43.25;95459.41;4995877;28;19939;-73
2023/08/19 03:52:48;;;;;;;;;;;;;;;20.68;43.10;95453.41;4997398;28;19925;-70
2023/08/19 03:55:14;;;;;;;;;;;;;;;20.71;42.35;95448.31;4998803;28;19926;-71
2023/08/19 03:57:39;;;;;;;;;;;;;;;20.71;42.36;95450.22;4997079;28;19932;-70
2023/08/19 04:00:05;;;;;;;;;;;;;;;20.70;42.59;95451.28;5000157;28;20325;-69
2023/08/19 04:02:30;;;;;;;;;;;;;;;20.68;42.83;95445.31;4998856;28;20215;-70
2023/08/19 04:04:59;;;;;;;;;;;;;;;20.73;42.24;95446.19;4999193;28;19933;-70
2023/08/19 04:07:24;;;;;;;;;;;;;;;20.72;42.46;95436.44;4997912;28;19925;-70
2023/08/19 04:09:49;;;;;;;;;;;;;;;20.75;42.25;95435.13;4999764;28;19921;-69
2023/08/19 04:12:15;;;;;;;;;;;;;;;20.73;42.70;95446.19;4993488;28;19925;-70
2023/08/19 04:14:42;;;;;;;;;;;;;;;20.72;42.67;95438.31;5000314;28;20016;-70
2023/08/19 04:17:07;;;;;;;;;;;;;;;20.69;42.58;95436.94;4997146;28;19960;-71
2023/08/19 04:19:32;;;;;;;;;;;;;;;20.71;42.48;95439.41;4997524;28;20050;-69
2023/08/19 04:21:57;;;;;;;;;;;;;;;20.71;42.60;95439.41;4995737;28;20106;-70
2023/08/19 04:24:23;;;;;;;;;;;;;;;20.61;42.57;95446.25;4999903;28;19953;-71
2023/08/19 04:26:48;;;;;;;;;;;;;;;20.59;42.99;95442.16;4993960;28;19925;-70
2023/08/19 04:29:13;;;;;;;;;;;;;;;20.54;42.62;95447.50;4999748;28;19925;-70
2023/08/19 04:31:38;;;;;;;;;;;;;;;20.47;42.72;95450.38;4996376;28;20043;-70
2023/08/19 04:34:04;;;;;;;;;;;;;;;20.42;42.72;95443.00;4998851;28;19964;-70
2023/08/19 04:36:29;;;;;;;;;;;;;;;20.54;42.65;95445.63;4998746;28;19971;-70
2023/08/19 04:38:54;;;;;;;;;;;;;;;20.51;43.08;95443.41;4999345;28;20016;-70
2023/08/19 04:41:19;;;;;;;;;;;;;;;20.47;42.80;95442.25;4999669;28;20013;-70
2023/08/19 04:43:46;;;;;;;;;;;;;;;20.45;42.69;95447.91;4999981;28;20018;-70
2023/08/19 04:46:12;;;;;;;;;;;;;;;20.44;42.88;95450.84;4998692;28;20295;-70
2023/08/19 04:48:38;;;;;;;;;;;;;;;20.34;42.99;95449.63;4998767;28;19921;-70
2023/08/19 04:51:03;;;;;;;;;;;;;;;20.31;42.94;95447.41;4998734;28;19928;-70
2023/08/19 04:53:28;;;;;;;;;;;;;;;20.22;43.32;95446.16;4996825;28;20325;-69
2023/08/19 04:55:58;;;;;;;;;;;;;;;20.14;43.44;95447.41;4998108;28;19926;-70
2023/08/19 04:58:23;;;;;;;;;;;;;;;20.13;43.79;95448.47;4998590;28;20421;-70
2023/08/19 05:00:48;;;;;;;;;;;;;;;20.28;43.22;95449.78;4999989;28;20075;-70
2023/08/19 05:03:13;;;;;;;;;;;;;;;20.34;43.03;95448.81;4994258;28;19952;-70
2023/08/19 05:05:40;;;;;;;;;;;;;;;20.39;43.01;95454.28;4999820;28;20417;-70
2023/08/19 05:08:05;;;;;;;;;;;;;;;20.51;42.53;95451.50;4994560;28;20325;-70
2023/08/19 05:10:30;;;;;;;;;;;;;;;20.58;42.44;95456.75;4996623;28;20125;-70
2023/08/19 05:12:57;;;;;;;;;;;;;;;20.69;42.40;95455.88;4999332;28;20325;-70
2023/08/19 05:15:23;;;;;;;;;;;;;;;20.76;42.16;95458.41;4999347;28;20044;-70
2023/08/19 05:17:48;;;;;;;;;;;;;;;20.90;41.95;95458.06;4998961;28;20008;-70
2023/08/19 05:20:13;;;;;;;;;;;;;;;20.93;41.89;95454.84;4999463;28;20476;-70
2023/08/19 05:22:38;;;;;;;;;;;;;;;20.97;41.93;95458.72;4993686;28;19933;-70
2023/08/19 05:25:05;;;;;;;;;;;;;;;21.10;41.58;95469.19;4998947;28;19921;-71
2023/08/19 05:27:30;;;;;;;;;;;;;;;21.18;41.58;95475.22;4994661;28;19929;-70
2023/08/19 05:29:55;;;;;;;;;;;;;;;21.15;41.28;95479.25;4999285;28;20349;-70
2023/08/19 05:32:21;;;;;;;;;;;;;;;21.20;41.11;95481.19;4997165;28;20598;-71
2023/08/19 05:34:46;;;;;;;;;;;;;;;21.29;40.86;95493.28;4998745;28;19921;-71
2023/08/19 05:37:11;;;;;;;;;;;;;;;21.31;41.23;95493.03;4994185;28;20024;-71
2023/08/19 05:39:36;;;;;;;;;;;;;;;21.54;40.52;95491.13;4999026;28;19965;-70
2023/08/19 05:42:02;;;;;;;;;;;;;;;21.65;40.51;95501.00;4996602;28;20394;-70
2023/08/19 05:44:27;;;;;;;;;;;;;;;21.83;40.64;95496.34;4997726;28;20315;-71
2023/08/19 05:46:52;;;;;;;;;;;;;;;21.99;40.31;95505.53;4997558;28;20018;-70
2023/08/19 05:49:18;;;;;;;;;;;;;;;22.08;40.11;95514.81;4997423;28;20177;-71
2023/08/19 05:51:43;;;;;;;;;;;;;;;22.07;39.75;95513.19;4995375;28;20402;-70
2023/08/19 05:54:08;;;;;;;;;;;;;;;22.17;39.08;95517.91;4996895;28;20366;-71
2023/08/19 05:56:34;;;;;;;;;;;;;;;22.11;40.03;95514.31;4996040;28;20705;-71
2023/08/19 05:58:59;;;;;;;;;;;;;;;22.20;40.78;95521.97;4995412;28;20000;-71
2023/08/19 06:01:24;;;;;;;;;;;;;;;22.21;40.05;95523.63;4996134;28;20026;-71
2023/08/19 06:03:50;;;;;;;;;;;;;;;22.41;39.79;95528.44;4995718;28;19929;-71
2023/08/19 06:06:16;;;;;;;;;;;;;;;22.34;39.07;95523.22;4997140;28;20442;-71
2023/08/19 06:08:41;;;;;;;;;;;;;;;22.33;39.67;95526.19;4997581;28;19979;-71
2023/08/19 06:11:06;;;;;;;;;;;;;;;22.35;39.92;95524.84;4996434;28;20051;-70
2023/08/19 06:13:34;;;;;;;;;;;;;;;22.53;38.84;95512.00;4997044;28;19921;-70
2023/08/19 06:16:00;;;;;;;;;;;;;;;22.54;39.90;95516.38;4997106;28;19926;-70
2023/08/19 06:18:25;;;;;;;;;;;;;;;22.70;39.46;95519.22;5004071;28;19937;-70
2023/08/19 06:20:51;;;;;;;;;;;;;;;22.78;39.24;95529.59;4997988;28;20155;-70
2023/08/19 06:23:18;;;;;;;;;;;;;;;22.91;38.54;95525.63;4992125;28;19957;-70
2023/08/19 06:25:43;;;;;;;;;;;;;;;23.00;39.40;95525.94;4997799;28;20152;-71
2023/08/19 06:28:08;;;;;;;;;;;;;;;22.99;38.81;95522.41;4993738;28;19926;-70
2023/08/19 06:30:34;;;;;;;;;;;;;;;22.99;38.62;95518.88;4997918;28;20444;-70
2023/08/19 06:32:59;;;;;;;;;;;;;;;23.06;39.35;95527.63;4995370;28;20484;-70
2023/08/19 06:35:24;;;;;;;;;;;;;;;23.07;38.68;95526.53;4995215;28;19933;-70
2023/08/19 06:37:52;;;;;;;;;;;;;;;23.11;38.65;95524.94;4996156;28;20341;-71
2023/08/19 06:40:18;;;;;;;;;;;;;;;23.15;38.98;95526.06;4994015;28;19967;-70
2023/08/19 06:42:44;;;;;;;;;;;;;;;23.19;38.19;95530.97;4992605;28;20484;-70
2023/08/19 06:45:10;;;;;;;;;;;;;;;23.20;37.24;95535.31;4995136;28;19922;-70
2023/08/19 06:47:35;;;;;;;;;;;;;;;23.12;39.26;95542.03;4993660;28;19953;-70
2023/08/19 06:50:00;;;;;;;;;;;;;;;23.12;39.13;95539.31;4995359;28;20022;-70
2023/08/19 06:52:25;;;;;;;;;;;;;;;23.12;38.79;95542.84;4988041;28;19933;-70
2023/08/19 06:54:51;;;;;;;;;;;;;;;23.24;38.45;95545.41;4993582;28;20380;-70
2023/08/19 06:57:21;;;;;;;;;;;;;;;23.53;37.59;95552.38;4993902;28;20047;-70
2023/08/19 06:59:47;;;;;;;;;;;;;;;23.79;38.09;95549.78;4995132;28;20298;-70
2023/08/19 07:02:12;;;;;;;;;;;;;;;24.03;37.89;95543.91;4992308;28;19917;-70
2023/08/19 07:04:38;;;;;;;;;;;;;;;24.32;37.11;95538.84;4988539;28;19925;-70
2023/08/19 07:07:04;;;;;;;;;;;;;;;24.50;35.37;95546.78;4993142;28;19972;-70
2023/08/19 07:09:29;;;;;;;;;;;;;;;24.73;36.46;95542.69;4990644;28;19910;-70
2023/08/19 07:11:55;;;;;;;;;;;;;;;25.07;35.25;95535.91;4994443;28;20306;-70
2023/08/19 07:14:20;;;;;;;;;;;;;;;25.26;36.10;95544.34;4990992;28;20382;-70
2023/08/19 07:16:47;;;;;;;;;;;;;;;25.73;35.09;95546.97;4994952;28;19914;-70
2023/08/19 07:19:13;;;;;;;;;;;;;;;26.06;35.46;95543.81;4988424;28;20261;-70
2023/08/19 07:21:38;;;;;;;;;;;;;;;26.42;34.69;95551.00;4992875;28;20060;-70
2023/08/19 07:24:03;;;;;;;;;;;;;;;25.99;33.02;95558.56;4992661;28;20412;-70
2023/08/19 07:26:28;;;;;;;;;;;;;;;26.07;33.55;95559.13;4992734;28;20251;-70
2023/08/19 07:28:54;;;;;;;;;;;;;;;26.30;32.71;95565.78;4992925;28;19925;-70
2023/08/19 07:31:20;;;;;;;;;;;;;;;26.40;31.81;95559.47;4995326;28;20358;-70
2023/08/19 07:33:45;;;;;;;;;;;;;;;26.60;31.60;95561.28;4992771;28;19927;-70
2023/08/19 07:36:10;;;;;;;;;;;;;;;26.90;31.83;95564.06;4995227;28;19928;-70
2023/08/19 07:38:36;;;;;;;;;;;;;;;27.22;31.63;95559.97;4987368;28;20036;-70
2023/08/19 07:41:01;;;;;;;;;;;;;;;27.39;31.82;95565.00;4994448;28;20437;-70
2023/08/19 07:43:26;;;;;;;;;;;;;;;27.05;30.88;95576.75;4990116;28;20011;-70
2023/08/19 07:45:51;;;;;;;;;;;;;;;27.40;30.35;95582.22;4994178;28;19925;-70
2023/08/19 07:48:17;;;;;;;;;;;;;;;27.68;30.38;95576.22;4988950;28;19956;-70
2023/08/19 07:50:42;;;;;;;;;;;;;;;27.18;30.94;95586.25;4992943;28;19932;-71
2023/08/19 07:53:08;;;;;;;;;;;;;;;27.41;31.37;95583.84;4990033;28;19928;-70
2023/08/19 07:55:33;;;;;;;;;;;;;;;27.77;30.21;95588.97;4995319;28;19921;-70
2023/08/19 07:57:58;;;;;;;;;;;;;;;26.99;31.93;95589.66;4990434;28;19973;-70
2023/08/19 08:00:23;;;;;;;;;;;;;;;27.23;32.34;95599.06;4995003;28;20470;-70
2023/08/19 08:02:49;;;;;;;;;;;;;;;27.50;30.88;95592.25;4991767;28;19929;-71
2023/08/19 08:05:14;;;;;;;;;;;;;;;27.75;30.61;95596.66;4992703;28;20011;-76
2023/08/19 08:07:39;;;;;;;;;;;;;;;27.68;30.57;95598.91;4994086;28;19925;-75
2023/08/19 08:10:04;;;;;;;;;;;;;;;27.92;30.00;95602.75;4995033;28;19925;-75
2023/08/19 08:12:30;;;;;;;;;;;;;;;28.13;30.53;95597.84;4994646;28;20388;-75
2023/08/19 08:14:56;;;;;;;;;;;;;;;28.22;30.20;95596.13;4987176;28;19921;-74
2023/08/19 08:17:22;;;;;;;;;;;;;;;28.24;30.82;95588.41;4995114;28;19922;-76
2023/08/19 08:19:47;;;;;;;;;;;;;;;27.98;31.85;95590.66;4986104;28;19972;-76
2023/08/19 08:22:12;;;;;;;;;;;;;;;28.07;31.70;95583.41;4991565;28;19921;-76
2023/08/19 08:24:37;;;;;;;;;;;;;;;28.05;31.24;95579.34;4990204;28;19961;-75
2023/08/19 08:27:03;;;;;;;;;;;;;;;28.11;31.20;95587.19;4993526;28;19980;-75
2023/08/19 08:29:28;;;;;;;;;;;;;;;27.88;31.94;95588.84;4991031;28;19925;-75
2023/08/19 08:31:53;;;;;;;;;;;;;;;27.98;31.08;95587.91;4993568;28;19995;-75
2023/08/19 08:34:18;;;;;;;;;;;;;;;28.14;32.18;95586.59;4989139;28;19940;-74
2023/08/19 08:36:44;;;;;;;;;;;;;;;28.27;32.14;95582.38;4993784;28;20301;-73
2023/08/19 08:39:09;;;;;;;;;;;;;;;28.30;32.45;95580.97;4995790;28;19964;-71
2023/08/19 08:41:36;;;;;;;;;;;;;;;28.37;31.00;95581.41;4998498;28;19948;-73
2023/08/19 08:44:01;;;;;;;;;;;;;;;28.31;32.48;95582.59;4996175;28;20370;-74
2023/08/19 08:46:26;;;;;;;;;;;;;;;28.17;32.48;95584.44;4998145;28;19925;-73
2023/08/19 08:48:52;;;;;;;;;;;;;;;27.98;31.88;95586.00;4995541;28;20404;-73
2023/08/19 08:51:17;;;;;;;;;;;;;;;28.19;31.26;95579.47;4986076;28;19953;-73
2023/08/19 08:53:42;;;;;;;;;;;;;;;28.15;31.65;95591.00;4961165;28;19922;-74
2023/08/19 08:56:08;;;;;;;;;;;;;;;28.17;31.05;95587.97;4977032;28;20464;-73
2023/08/19 08:58:33;;;;;;;;;;;;;;;28.30;31.48;95580.16;4954343;28;19993;-73
2023/08/19 09:00:58;;;;;;;;;;;;;;;28.33;31.42;95588.59;4961142;28;19957;-73
2023/08/19 09:03:24;;;;;;;;;;;;;;;28.28;30.81;95589.47;4974759;28;19961;-74
2023/08/19 09:05:50;;;;;;;;;;;;;;;28.32;31.47;95584.22;4973758;28;19933;-71
2023/08/19 09:08:17;;;;;;;;;;;;;;;28.48;30.44;95581.28;4966625;28;19965;-75
2023/08/19 09:10:43;;;;;;;;;;;;;;;28.52;31.04;95587.78;5002871;28;19927;-73
2023/08/19 09:13:08;;;;;;;;;;;;;;;28.57;30.39;95597.81;5002905;28;19925;-72
2023/08/19 09:15:33;;;;;;;;;;;;;;;28.75;30.91;95601.72;5011226;28;20183;-74
2023/08/19 09:17:59;;;;;;;;;;;;;;;28.77;30.32;95596.75;5006955;28;19992;-74
2023/08/19 09:20:25;;;;;;;;;;;;;;;28.96;29.98;95601.41;4980256;28;19922;-74
2023/08/19 09:22:50;;;;;;;;;;;;;;;28.93;29.70;95603.59;4976940;28;19929;-71
2023/08/19 09:25:16;;;;;;;;;;;;;;;29.18;29.66;95598.88;4974714;28;20069;-74
2023/08/19 09:27:41;;;;;;;;;;;;;;;29.24;29.34;95610.56;4976497;28;20310;-72
2023/08/19 09:30:06;;;;;;;;;;;;;;;28.57;30.36;95606.88;4976139;28;19930;-72
2023/08/19 09:32:32;;;;;;;;;;;;;;;29.07;30.56;95613.00;4996107;28;19917;-74
2023/08/19 09:35:04;;;;;;;;;;;;;;;28.57;30.75;95606.03;4996985;28;19984;-74
2023/08/19 09:37:30;;;;;;;;;;;;;;;29.28;30.33;95600.63;4979916;28;19964;-73
2023/08/19 09:39:56;;;;;;;;;;;;;;;30.06;29.96;95604.69;4991006;28;19930;-73
2023/08/19 09:42:21;;;;;;;;;;;;;;;30.40;28.94;95604.56;4996966;28;20211;-71
2023/08/19 09:44:46;;;;;;;;;;;;;;;30.59;27.53;95596.97;4994013;28;20156;-75
2023/08/19 09:47:11;;;;;;;;;;;;;;;30.75;28.66;95599.41;5004177;28;19921;-75
2023/08/19 09:49:37;;;;;;;;;;;;;;;31.02;28.72;95597.66;4993932;28;20035;-75
2023/08/19 09:52:02;;;;;;;;;;;;;;;31.08;27.68;95593.69;4976766;28;19965;-75
2023/08/19 09:54:28;;;;;;;;;;;;;;;31.37;27.06;95605.34;4977059;28;20233;-75
2023/08/19 09:56:54;;;;;;;;;;;;;;;31.54;27.46;95599.13;4975446;28;19918;-76
2023/08/19 09:59:19;;;;;;;;;;;;;;;31.94;26.23;95603.03;4991057;28;19929;-76
2023/08/19 10:01:44;;;;;;;;;;;;;;;32.05;26.72;95595.31;4990135;28;20302;-75
2023/08/19 10:04:09;;;;;;;;;;;;;;;32.35;24.99;95593.63;4983725;28;20274;-74
2023/08/19 10:06:36;;;;;;;;;;;;;;;32.43;25.60;95593.97;4987163;28;19921;-76
2023/08/19 10:09:04;;;;;;;;;;;;;;;32.65;25.56;95584.78;5007684;28;19921;-76
2023/08/19 10:11:30;;;;;;;;;;;;;;;32.62;23.92;95585.41;4985515;28;19922;-75
2023/08/19 10:13:55;;;;;;;;;;;;;;;32.67;26.14;95581.69;4979452;28;19922;-77
2023/08/19 10:16:21;;;;;;;;;;;;;;;32.92;24.34;95576.50;4989691;28;19929;-76
2023/08/19 10:18:46;;;;;;;;;;;;;;;33.04;25.28;95587.72;4980459;28;19930;-76
2023/08/19 10:21:12;;;;;;;;;;;;;;;33.23;25.46;95594.78;4975577;28;20072;-76
2023/08/19 10:23:38;;;;;;;;;;;;;;;33.13;24.87;95610.56;4977603;28;20028;-76
2023/08/19 10:26:03;;;;;;;;;;;;;;;32.98;24.60;95624.81;4972651;28;20402;-75
2023/08/19 10:28:28;;;;;;;;;;;;;;;32.21;25.14;95623.22;4974739;28;19964;-76
2023/08/19 10:31:04;;;;;;;;;;;;;;;31.74;26.40;95624.50;4971336;28;19948;-77
2023/08/19 10:33:32;;;;;;;;;;;;;;;31.88;27.25;95637.34;4976065;28;19922;-76
2023/08/19 10:36:03;;;;;;;;;;;;;;;31.34;26.62;95639.00;4973946;28;20111;-75
2023/08/19 10:38:48;;;;;;;;;;;;;;;31.51;27.10;95640.22;4973730;28;19926;-74
2023/08/19 10:41:25;;;;;;;;;;;;;;;31.71;26.84;95642.44;4975955;28;19965;-76
2023/08/19 10:44:00;;;;;;;;;;;;;;;32.17;27.17;95647.03;4983499;28;20248;-76
2023/08/19 10:46:35;;;;;;;;;;;;;;;29.52;28.66;95649.00;4976457;28;19924;-75
2023/08/19 10:49:00;;;;;;;;;;;;;;;29.03;30.10;95646.47;4975474;28;19934;-76
2023/08/19 10:51:44;;;;;;;;;;;;;;;30.12;28.79;95645.72;4974926;28;20517;-74
2023/08/19 10:54:09;;;;;;;;;;;;;;;31.00;27.43;95649.41;4974795;28;20294;-75
2023/08/19 10:56:35;;;;;;;;;;;;;;;31.20;27.69;95655.56;4976399;28;19965;-76
2023/08/19 10:59:00;;;;;;;;;;;;;;;30.75;27.55;95667.28;4974494;28;20033;-76
2023/08/19 11:01:29;;;;;;;;;;;;;;;30.90;27.83;95666.13;4965673;28;19921;-75
2023/08/19 11:03:56;;;;;;;;;;;;;;;31.05;27.87;95660.25;4972806;28;19941;-76
2023/08/19 11:06:21;;;;;;;;;;;;;;;31.52;27.48;95661.09;4967350;28;20207;-76
2023/08/19 11:08:47;;;;;;;;;;;;;;;31.69;27.32;95668.66;4973201;28;20036;-75
2023/08/19 11:11:16;;;;;;;;;;;;;;;32.02;27.15;95671.09;4972566;28;19965;-75
2023/08/19 11:13:41;;;;;;;;;;;;;;;32.28;26.68;95675.09;4974520;28;20857;-75
2023/08/19 11:16:06;;;;;;;;;;;;;;;32.61;26.60;95671.97;4987179;28;20004;-76
2023/08/19 11:18:32;;;;;;;;;;;;;;;32.81;26.06;95670.53;4995233;28;20399;-77
2023/08/19 11:20:57;;;;;;;;;;;;;;;32.98;25.39;95675.28;4986531;28;19933;-76
2023/08/19 11:23:27;;;;;;;;;;;;;;;32.96;25.96;95684.97;4995339;28;19952;-76
2023/08/19 11:25:52;;;;;;;;;;;;;;;32.78;25.95;95673.94;4993326;28;20485;-76
2023/08/19 11:28:17;;;;;;;;;;;;;;;33.07;25.91;95674.47;4995330;28;20024;-75
2023/08/19 11:30:43;;;;;;;;;;;;;;;32.74;25.49;95675.72;4993396;28;19963;-76
2023/08/19 11:33:08;;;;;;;;;;;;;;;32.35;26.71;95679.00;4994165;28;19960;-76
2023/08/19 11:35:43;;;;;;;;;;;;;;;33.25;24.94;95684.34;4993833;28;19968;-75
2023/08/19 11:38:17;;;;;;;;;;;;;;;33.25;24.56;95684.34;4994953;28;20390;-75
2023/08/19 11:40:42;;;;;;;;;;;;;;;33.18;25.29;95684.03;4993478;28;19960;-76
2023/08/19 11:43:13;;;;;;;;;;;;;;;33.35;25.53;95694.25;4993712;28;20246;-76
2023/08/19 11:45:39;;;;;;;;;;;;;;;33.61;24.49;95690.63;4989305;28;19925;-77
2023/08/19 11:48:05;;;;;;;;;;;;;;;32.94;26.21;95690.81;4993347;28;19976;-76
2023/08/19 11:50:34;;;;;;;;;;;;;;;33.72;25.37;95687.53;4984919;28;19933;-76
2023/08/19 11:53:00;;;;;;;;;;;;;;;33.81;24.74;95693.84;4995592;28;20000;-75
2023/08/19 11:55:25;;;;;;;;;;;;;;;34.01;23.87;95697.06;4990573;28;19929;-76
2023/08/19 11:57:52;;;;;;;;;;;;;;;34.15;24.26;95703.16;4995823;28;20016;-76
2023/08/19 12:00:17;;;;;;;;;;;;;;;33.82;24.67;95700.19;4990094;28;19926;-76
2023/08/19 12:02:44;;;;;;;;;;;;;;;32.00;26.02;95709.13;4994745;28;19960;-76
2023/08/19 12:05:09;;;;;;;;;;;;;;;32.57;26.56;95713.13;4990834;28;19926;-75
2023/08/19 12:07:35;;;;;;;;;;;;;;;32.58;25.78;95719.41;4995293;28;19928;-76
2023/08/19 12:10:00;;;;;;;;;;;;;;;33.23;25.34;95716.13;4991574;28;19972;-75
2023/08/19 12:12:25;;;;;;;;;;;;;;;32.48;25.94;95713.06;4996384;28;19921;-75
2023/08/19 12:14:50;;;;;;;;;;;;;;;33.14;25.94;95711.41;4995651;28;20488;-76
2023/08/19 12:17:17;;;;;;;;;;;;;;;33.38;25.29;95732.19;4996915;28;20333;-75
2023/08/19 12:19:43;;;;;;;;;;;;;;;32.37;26.15;95733.75;4996281;28;20013;-76
2023/08/19 12:22:09;;;;;;;;;;;;;;;33.46;25.04;95732.53;4994953;28;20016;-76
2023/08/19 12:24:34;;;;;;;;;;;;;;;32.53;26.03;95728.66;4996848;28;19945;-76
2023/08/19 12:27:00;;;;;;;;;;;;;;;31.53;28.00;95726.78;4998605;28;19925;-76
2023/08/19 12:29:25;;;;;;;;;;;;;;;33.52;26.57;95728.47;4998376;28;20012;-76
2023/08/19 12:31:50;;;;;;;;;;;;;;;33.82;25.89;95716.75;4998201;28;20046;-76
2023/08/19 12:34:16;;;;;;;;;;;;;;;33.03;25.21;95712.09;4997329;28;20428;-75
2023/08/19 12:36:41;;;;;;;;;;;;;;;33.71;24.98;95716.28;4993507;28;20393;-76
2023/08/19 12:39:06;;;;;;;;;;;;;;;34.23;25.12;95723.63;4998326;28;20060;-76
2023/08/19 12:41:32;;;;;;;;;;;;;;;33.31;26.43;95725.53;4994617;28;19996;-75